Terminal Aerodrome Forecast
Issued by NWS Shreveport, LA

Home | Current Version | Previous Version | Text Only | Print | Product List | Glossary On
Versions: 1 2 3 4 5 6 7 8 9 10 11 12 13 14 15 16 17 18 19 20 21 22
000
FTUS44 KSHV 291730
TAFTYR
TAF
KTYR 291730Z 2918/3018 00000KT P6SM FEW025 SCT070 BKN110
     FM300100 07005KT P6SM SCT070 SCT250
     FM300600 00000KT 3SM BR OVC007
     FM301500 10004KT P6SM BKN050=

USA.gov is the U.S. government's official web portal to all federal, state and local government web resources and services.